Time;durP1;ratioP1;P1;durP2;ratioP2;P2;SDS_P1;SDS_P2;PMS_P1;PMS_P2;Temp;Humidity;BMP_temperature;BMP_pressure;BME280_temperature;BME280_humidity;BME280_pressure;Samples;Min_cycle;Max_cycle;Signal;HPM_P1;HPM_P2
2023/10/10 00:00:23;;;;;;;;;;;;;;;19.71;57.20;102012.28;4931327;28;114385;-80
2023/10/10 00:02:51;;;;;;;;;;;;;;;19.68;57.23;102015.16;4937035;28;113781;-80
2023/10/10 00:05:19;;;;;;;;;;;;;;;19.64;57.17;102014.50;4923703;28;123428;-80
2023/10/10 00:07:46;;;;;;;;;;;;;;;19.62;57.12;102016.44;4946314;28;124034;-80
2023/10/10 00:10:13;;;;;;;;;;;;;;;19.57;57.21;102019.44;4948939;28;114607;-80
2023/10/10 00:12:40;;;;;;;;;;;;;;;19.54;57.05;102016.94;4949194;28;115401;-80
2023/10/10 00:15:19;;;;;;;;;;;;;;;19.51;57.15;102011.75;4941506;28;124995;-78
2023/10/10 00:17:47;;;;;;;;;;;;;;;19.47;57.17;102012.91;4924871;28;123743;-80
2023/10/10 00:20:35;;;;;;;;;;;;;;;19.45;57.21;102009.44;4937595;28;114147;-78
2023/10/10 00:37:51;;;;;;;;;;;;;;;19.12;57.33;102013.31;4939367;28;114093;-80
2023/10/10 00:40:29;;;;;;;;;;;;;;;19.11;57.32;102016.94;4929721;28;124774;-81
2023/10/10 00:46:47;;;;;;;;;;;;;;;19.04;57.32;102015.59;4943538;28;115298;-80
2023/10/10 00:49:16;;;;;;;;;;;;;;;19.01;57.23;102013.13;4943250;28;113757;-79
2023/10/10 00:51:47;;;;;;;;;;;;;;;19.00;57.34;102011.38;4948492;28;123390;-81
2023/10/10 00:56:54;;;;;;;;;;;;;;;18.96;57.38;102009.84;4932573;28;113959;-81
2023/10/10 00:59:32;;;;;;;;;;;;;;;18.92;57.44;102005.63;4938162;28;113756;-80
2023/10/10 01:02:00;;;;;;;;;;;;;;;18.90;57.27;101996.81;4933754;28;123935;-80
2023/10/10 01:04:35;;;;;;;;;;;;;;;18.88;57.42;101993.38;4917088;28;124036;-81
2023/10/10 01:07:09;;;;;;;;;;;;;;;18.85;57.32;101992.59;4931247;28;114852;-79
2023/10/10 01:09:55;;;;;;;;;;;;;;;18.83;57.36;101994.50;4922123;28;115149;-80
2023/10/10 01:12:28;;;;;;;;;;;;;;;18.80;57.35;101985.75;4932539;28;124202;-79
2023/10/10 01:14:57;;;;;;;;;;;;;;;18.78;57.35;101984.97;4941460;28;123501;-79
2023/10/10 01:17:30;;;;;;;;;;;;;;;18.77;57.31;101986.78;4943282;28;115079;-80
2023/10/10 01:20:17;;;;;;;;;;;;;;;18.76;57.50;101985.09;4938642;28;113995;-80
2023/10/10 01:22:49;;;;;;;;;;;;;;;18.73;57.39;101979.88;4928748;28;123671;-80
2023/10/10 01:45:32;;;;;;;;;;;;;;;18.53;57.74;101956.09;4926048;28;113788;-80
2023/10/10 01:48:08;;;;;;;;;;;;;;;18.52;57.56;101949.03;4931721;28;125296;-79
2023/10/10 01:50:35;;;;;;;;;;;;;;;18.52;57.56;101960.59;4951829;28;123924;-80
2023/10/10 01:53:06;;;;;;;;;;;;;;;18.52;57.66;101960.59;4948931;28;115956;-80
2023/10/10 01:55:33;;;;;;;;;;;;;;;18.51;57.55;101949.97;4949330;28;114175;-81
2023/10/10 01:58:10;;;;;;;;;;;;;;;18.49;57.67;101945.53;4940248;28;123085;-80
2023/10/10 02:00:37;;;;;;;;;;;;;;;18.46;57.67;101940.38;4932221;28;123257;-80
2023/10/10 02:03:04;;;;;;;;;;;;;;;18.45;57.46;101937.78;4933557;28;115167;-80
2023/10/10 02:08:09;;;;;;;;;;;;;;;18.42;57.63;101933.47;4933797;28;123939;-81
2023/10/10 02:10:36;;;;;;;;;;;;;;;18.39;57.64;101922.94;4930284;28;124023;-80
2023/10/10 02:13:07;;;;;;;;;;;;;;;18.38;57.50;101929.22;4931492;28;113317;-80
2023/10/10 02:15:36;;;;;;;;;;;;;;;18.37;57.53;101924.84;4946248;28;113644;-80
2023/10/10 02:18:13;;;;;;;;;;;;;;;18.36;57.50;101923.09;4938900;28;122952;-80
2023/10/10 02:23:23;;;;;;;;;;;;;;;18.32;57.55;101926.94;4934136;28;114321;-79
2023/10/10 02:25:53;;;;;;;;;;;;;;;18.30;57.58;101923.47;4933596;28;113459;-80
2023/10/10 02:28:20;;;;;;;;;;;;;;;18.29;57.67;101927.13;4931900;28;125526;-80
2023/10/10 02:30:52;;;;;;;;;;;;;;;18.26;57.47;101927.31;4933831;28;123931;-81
2023/10/10 02:44:09;;;;;;;;;;;;;;;18.12;57.79;101924.56;4941012;28;115217;-79
2023/10/10 02:46:40;;;;;;;;;;;;;;;18.08;57.59;101911.38;4941093;28;114730;-79
2023/10/10 02:51:55;;;;;;;;;;;;;;;18.05;57.73;101914.22;4937262;28;125886;-80
2023/10/10 02:56:58;;;;;;;;;;;;;;;18.02;57.80;101914.41;4935605;28;116119;-79
2023/10/10 02:59:31;;;;;;;;;;;;;;;18.00;57.61;101916.31;4912797;28;123179;-79
2023/10/10 03:02:42;;;;;;;;;;;;;;;17.97;57.81;101911.16;4945557;28;123251;-80
2023/10/10 03:07:30;;;;;;;;;;;;;;;17.92;57.78;101918.59;4947433;28;113431;-80
2023/10/10 03:12:41;;;;;;;;;;;;;;;17.85;57.84;101917.22;4928860;28;125041;-79
2023/10/10 03:18:04;;;;;;;;;;;;;;;17.81;57.75;101910.28;4944853;28;112594;-80
2023/10/10 03:25:54;;;;;;;;;;;;;;;17.76;57.90;101918.56;4950196;28;113955;-81
2023/10/10 03:28:34;;;;;;;;;;;;;;;17.74;57.73;101919.63;4927667;28;112992;-79
2023/10/10 03:31:08;;;;;;;;;;;;;;;17.71;57.84;101921.53;4941095;28;123032;-79
2023/10/10 05:23:50;;;;;;;;;;;;;;;17.11;58.41;101846.44;4946438;28;123856;-81
2023/10/10 05:26:20;;;;;;;;;;;;;;;17.12;58.22;101842.78;4938214;28;114398;-81
2023/10/10 05:28:48;;;;;;;;;;;;;;;17.12;58.21;101837.44;4934073;28;113800;-81
2023/10/10 05:31:21;;;;;;;;;;;;;;;17.14;58.37;101835.56;4943684;28;123201;-82
2023/10/10 05:33:48;;;;;;;;;;;;;;;17.15;58.23;101842.63;4952388;28;124441;-82
2023/10/10 05:36:18;;;;;;;;;;;;;;;17.16;58.24;101839.00;4950936;28;115436;-81
2023/10/10 05:38:46;;;;;;;;;;;;;;;17.16;58.21;101839.00;4928077;28;113829;-81
2023/10/10 05:41:13;;;;;;;;;;;;;;;17.17;58.30;101840.72;4951160;28;124924;-83
2023/10/10 05:43:40;;;;;;;;;;;;;;;17.17;58.30;101839.88;4938595;28;123807;-82
2023/10/10 05:46:08;;;;;;;;;;;;;;;17.17;58.20;101835.38;4949767;28;114679;-82
2023/10/10 05:48:36;;;;;;;;;;;;;;;17.17;58.22;101840.72;4955564;28;113727;-81
2023/10/10 05:51:03;;;;;;;;;;;;;;;17.17;58.28;101835.38;4950697;28;123524;-81
2023/10/10 05:53:33;;;;;;;;;;;;;;;17.17;58.15;101835.38;4933487;28;123775;-81
2023/10/10 05:56:12;;;;;;;;;;;;;;;17.16;58.31;101833.66;4949407;28;114541;-82
2023/10/10 05:58:42;;;;;;;;;;;;;;;17.16;58.37;101839.00;4950243;28;113939;-81
2023/10/10 06:01:12;;;;;;;;;;;;;;;17.15;58.27;101833.75;4948403;28;124947;-81
2023/10/10 06:03:40;;;;;;;;;;;;;;;17.15;57.97;101837.28;4926731;28;124010;-79
2023/10/10 06:06:12;;;;;;;;;;;;;;;17.15;58.29;101836.41;4947147;28;114553;-79
2023/10/10 06:08:42;;;;;;;;;;;;;;;17.14;58.26;101835.56;4934042;28;116432;-79
2023/10/10 06:11:09;;;;;;;;;;;;;;;17.12;58.30;101834.75;4931923;28;123807;-78
2023/10/10 06:13:39;;;;;;;;;;;;;;;17.10;58.25;101834.88;4949880;28;124743;-79
2023/10/10 06:16:06;;;;;;;;;;;;;;;17.10;58.26;101834.00;4938979;28;115273;-80
2023/10/10 06:18:33;;;;;;;;;;;;;;;17.09;58.28;101826.94;4934515;28;114826;-79
2023/10/10 06:21:02;;;;;;;;;;;;;;;17.09;58.29;101842.97;4950223;28;126301;-80
2023/10/10 06:23:36;;;;;;;;;;;;;;;17.10;58.24;101839.34;4955054;28;124350;-81
2023/10/10 06:26:04;;;;;;;;;;;;;;;17.10;58.40;101834.00;4970469;28;115357;-80
2023/10/10 06:28:45;;;;;;;;;;;;;;;17.11;58.28;101835.72;4953267;28;114858;-79
2023/10/10 06:31:19;;;;;;;;;;;;;;;17.10;58.56;101839.34;4952070;28;124021;-79
2023/10/10 06:33:49;;;;;;;;;;;;;;;17.11;58.33;101836.59;4953918;28;123926;-80
2023/10/10 06:41:42;;;;;;;;;;;;;;;17.13;58.38;101823.13;4936239;28;123878;-83
2023/10/10 06:44:26;;;;;;;;;;;;;;;17.15;58.45;101825.72;4958071;28;124964;-81
2023/10/10 06:46:55;;;;;;;;;;;;;;;17.16;58.38;101816.72;4934718;28;114580;-83
2023/10/10 06:49:23;;;;;;;;;;;;;;;17.16;58.56;101822.94;4950199;28;115360;-82
2023/10/10 06:51:50;;;;;;;;;;;;;;;17.19;58.49;101821.91;4961548;28;124827;-82
2023/10/10 06:54:27;;;;;;;;;;;;;;;17.19;58.44;101825.44;4951051;28;124010;-81
2023/10/10 06:59:27;;;;;;;;;;;;;;;17.25;58.65;101822.44;4949095;28;113214;-83
2023/10/10 07:01:59;;;;;;;;;;;;;;;17.27;58.69;101819.63;4941286;28;124872;-80
2023/10/10 07:04:27;;;;;;;;;;;;;;;17.30;58.53;101814.97;4934259;28;124805;-80
2023/10/10 07:07:00;;;;;;;;;;;;;;;17.32;58.57;101813.06;4934805;28;114125;-79
2023/10/10 07:09:28;;;;;;;;;;;;;;;17.35;58.76;101817.41;4934555;28;114920;-79
2023/10/10 07:11:56;;;;;;;;;;;;;;;17.40;58.56;101819.78;4932443;28;124165;-80
2023/10/10 07:14:26;;;;;;;;;;;;;;;17.44;58.55;101813.31;4935121;28;124165;-79
2023/10/10 07:16:56;;;;;;;;;;;;;;;17.48;58.68;101812.19;4934476;28;116159;-80
2023/10/10 07:19:30;;;;;;;;;;;;;;;17.52;58.51;101808.38;4944509;28;115050;-79
2023/10/10 07:21:59;;;;;;;;;;;;;;;17.56;58.62;101798.34;4934798;28;124969;-80
2023/10/10 07:24:40;;;;;;;;;;;;;;;17.60;58.71;101790.03;4934363;28;124292;-79
2023/10/10 07:27:11;;;;;;;;;;;;;;;17.68;58.75;101809.16;4936147;28;114463;-79
2023/10/10 07:32:18;;;;;;;;;;;;;;;17.77;58.65;101802.41;4940988;28;124285;-80
2023/10/10 07:34:51;;;;;;;;;;;;;;;17.82;58.69;101820.88;4937577;28;125528;-79
2023/10/10 07:37:18;;;;;;;;;;;;;;;17.87;58.74;101824.19;4951021;28;114738;-79
2023/10/10 07:39:55;;;;;;;;;;;;;;;17.92;58.58;101819.41;4939875;28;113616;-80
2023/10/10 07:42:34;;;;;;;;;;;;;;;17.97;58.71;101820.00;4949888;28;124241;-80
2023/10/10 07:45:13;;;;;;;;;;;;;;;18.01;58.61;101818.88;4952419;28;123841;-80
2023/10/10 07:50:27;;;;;;;;;;;;;;;18.14;58.59;101816.31;4951591;28;114184;-79
2023/10/10 07:52:54;;;;;;;;;;;;;;;18.20;58.72;101825.78;4946330;28;123585;-79
2023/10/10 07:55:32;;;;;;;;;;;;;;;18.26;58.88;101820.03;4932195;28;123690;-79
2023/10/10 07:58:06;;;;;;;;;;;;;;;18.34;58.71;101823.09;4934560;28;114498;-79
2023/10/10 08:00:37;;;;;;;;;;;;;;;18.40;58.72;101817.38;4934399;28;113573;-79
2023/10/10 08:03:12;;;;;;;;;;;;;;;18.46;58.68;101806.25;4944339;28;124036;-80
2023/10/10 08:05:42;;;;;;;;;;;;;;;18.52;58.77;101807.69;4949780;28;124493;-79
2023/10/10 08:08:13;;;;;;;;;;;;;;;18.59;58.58;101810.81;4953630;28;115003;-80
2023/10/10 08:10:40;;;;;;;;;;;;;;;18.68;58.56;101804.88;4923677;28;115790;-80
2023/10/10 08:13:10;;;;;;;;;;;;;;;18.75;58.60;101811.56;4935297;28;124491;-80
2023/10/10 08:15:56;;;;;;;;;;;;;;;18.81;58.54;101803.16;4933836;28;122829;-80
2023/10/10 08:21:15;;;;;;;;;;;;;;;18.96;58.65;101813.88;4935288;28;114701;-81
2023/10/10 08:23:43;;;;;;;;;;;;;;;19.03;58.64;101821.41;4936023;28;124612;-80
2023/10/10 08:26:17;;;;;;;;;;;;;;;19.11;58.65;101812.00;4936325;28;123686;-79
2023/10/10 08:28:45;;;;;;;;;;;;;;;19.18;58.52;101819.56;4937060;28;114981;-80
2023/10/10 08:31:13;;;;;;;;;;;;;;;19.27;58.54;101823.47;4933417;28;112809;-80
2023/10/10 08:33:44;;;;;;;;;;;;;;;19.36;58.59;101805.88;4945141;28;124677;-79
2023/10/10 08:36:19;;;;;;;;;;;;;;;19.42;58.47;101802.75;4931200;28;124105;-80
2023/10/10 08:38:46;;;;;;;;;;;;;;;19.47;58.46;101797.94;4931688;28;114301;-79
2023/10/10 08:41:14;;;;;;;;;;;;;;;19.52;58.41;101801.19;4930738;28;112746;-79
2023/10/10 08:43:42;;;;;;;;;;;;;;;19.60;58.46;101803.34;4930260;28;122906;-80
2023/10/10 08:46:12;;;;;;;;;;;;;;;19.66;58.53;101797.56;4931410;28;125084;-80
2023/10/10 08:48:40;;;;;;;;;;;;;;;19.75;58.54;101801.47;4915593;28;114750;-80
2023/10/10 08:51:07;;;;;;;;;;;;;;;19.82;58.48;101808.16;4934178;28;115003;-79
2023/10/10 08:53:36;;;;;;;;;;;;;;;19.88;58.43;101813.13;4953276;28;125531;-79
2023/10/10 08:56:06;;;;;;;;;;;;;;;19.95;58.40;101819.78;4965836;28;125196;-79
2023/10/10 08:58:35;;;;;;;;;;;;;;;20.01;58.33;101819.38;4969362;28;115190;-80
2023/10/10 09:01:05;;;;;;;;;;;;;;;20.06;58.21;101816.38;4949878;28;114878;-80
2023/10/10 09:03:34;;;;;;;;;;;;;;;20.09;58.33;101815.28;4946323;28;125068;-80
2023/10/10 09:06:13;;;;;;;;;;;;;;;20.13;58.25;101816.78;4949047;28;124021;-79
2023/10/10 09:08:43;;;;;;;;;;;;;;;20.18;58.21;101822.72;4933653;28;114196;-79
2023/10/10 09:11:11;;;;;;;;;;;;;;;20.22;58.28;101810.75;4932714;28;112730;-80
2023/10/10 09:13:51;;;;;;;;;;;;;;;20.28;58.24;101815.69;4956886;28;125163;-79
2023/10/10 09:16:27;;;;;;;;;;;;;;;20.34;58.20;101815.28;4942336;28;123810;-79
2023/10/10 09:19:10;;;;;;;;;;;;;;;20.39;58.26;101814.94;4934432;28;115340;-79
2023/10/10 09:21:50;;;;;;;;;;;;;;;20.45;58.26;101816.34;4951268;28;113220;-79
2023/10/10 09:24:28;;;;;;;;;;;;;;;20.51;58.23;101814.09;4966355;28;123653;-79
2023/10/10 09:27:10;;;;;;;;;;;;;;;20.56;58.17;101808.34;4967221;28;123850;-79
2023/10/10 09:29:46;;;;;;;;;;;;;;;20.61;58.30;101814.31;4965064;28;114614;-79
2023/10/10 09:32:14;;;;;;;;;;;;;;;20.66;58.16;101812.13;4950574;28;114678;-79
2023/10/10 09:34:41;;;;;;;;;;;;;;;20.72;58.24;101814.41;4949602;28;124022;-79
2023/10/10 09:37:14;;;;;;;;;;;;;;;20.78;58.23;101808.56;4940981;28;124058;-80
2023/10/10 09:39:43;;;;;;;;;;;;;;;20.87;58.34;101806.16;4931672;28;113934;-79
2023/10/10 09:44:53;;;;;;;;;;;;;;;21.02;58.22;101805.06;4947240;28;124137;-79
2023/10/10 09:47:57;;;;;;;;;;;;;;;21.09;58.19;101806.28;4940154;28;124487;-78
2023/10/10 09:52:50;;;;;;;;;;;;;;;21.31;58.33;101799.31;4935043;28;115819;-78
2023/10/10 09:57:58;;;;;;;;;;;;;;;21.50;58.03;101805.03;4936114;28;125074;-79
2023/10/10 10:01:12;;;;;;;;;;;;;;;21.58;58.00;101802.63;4934971;28;115031;-78
2023/10/10 10:03:31;;;;;;;;;;;;;;;21.68;57.95;101807.31;4931574;28;114079;-78
2023/10/10 10:06:02;;;;;;;;;;;;;;;21.75;57.99;101795.06;4914919;28;125543;-78
2023/10/10 10:08:37;;;;;;;;;;;;;;;21.83;58.01;101789.09;4953554;28;125049;-79
2023/10/10 10:11:12;;;;;;;;;;;;;;;21.91;57.86;101792.91;4918949;28;116282;-78
2023/10/10 10:13:48;;;;;;;;;;;;;;;22.01;57.97;101781.41;4947624;28;114884;-78
2023/10/10 10:16:37;;;;;;;;;;;;;;;22.10;57.78;101791.47;4940411;28;125605;-77
2023/10/10 10:19:19;;;;;;;;;;;;;;;22.19;57.77;101790.75;4946611;28;124527;-78
2023/10/10 10:24:33;;;;;;;;;;;;;;;22.31;57.51;101784.38;4946128;28;113848;-77
2023/10/10 10:29:56;;;;;;;;;;;;;;;22.50;57.81;101791.00;4936185;28;123672;-79
2023/10/10 10:32:26;;;;;;;;;;;;;;;22.60;57.57;101789.28;4935746;28;113357;-77
2023/10/10 10:34:56;;;;;;;;;;;;;;;22.68;57.59;101780.56;4943483;28;113484;-78
2023/10/10 10:37:25;;;;;;;;;;;;;;;22.76;57.66;101777.25;4953707;28;123136;-78
2023/10/10 10:42:49;;;;;;;;;;;;;;;22.91;57.53;101775.97;4947152;28;114478;-77
2023/10/10 10:45:26;;;;;;;;;;;;;;;22.99;57.53;101776.19;4949202;28;113983;-77
2023/10/10 10:47:54;;;;;;;;;;;;;;;23.11;57.65;101771.63;4951479;28;124830;-77
2023/10/10 10:50:40;;;;;;;;;;;;;;;23.20;57.46;101775.41;4936305;28;123214;-78
2023/10/10 10:56:06;;;;;;;;;;;;;;;23.41;57.19;101772.75;4942076;28;113742;-79
2023/10/10 10:58:48;;;;;;;;;;;;;;;23.50;57.20;101767.41;4943923;28;124237;-79
2023/10/10 11:01:17;;;;;;;;;;;;;;;23.65;57.37;101769.78;4947495;28;123867;-79
2023/10/10 11:03:44;;;;;;;;;;;;;;;23.74;57.42;101766.31;4953001;28;114702;-79
2023/10/10 11:06:14;;;;;;;;;;;;;;;23.83;57.02;101762.84;4941384;28;113027;-79
2023/10/10 11:11:36;;;;;;;;;;;;;;;23.99;57.25;101767.75;4949495;28;124551;-79
2023/10/10 11:14:09;;;;;;;;;;;;;;;24.07;57.06;101761.66;4949463;28;114230;-79
2023/10/10 11:16:37;;;;;;;;;;;;;;;24.15;56.85;101756.44;4950928;28;113448;-78
2023/10/10 11:19:12;;;;;;;;;;;;;;;24.22;56.76;101757.63;4949489;28;125281;-78
2023/10/10 11:21:47;;;;;;;;;;;;;;;24.28;56.83;101746.25;4942002;28;123497;-78
2023/10/10 11:24:15;;;;;;;;;;;;;;;24.36;56.71;101736.59;4947261;28;114818;-78
2023/10/10 11:26:44;;;;;;;;;;;;;;;24.46;57.00;101737.47;4953077;28;114106;-78
2023/10/10 11:29:27;;;;;;;;;;;;;;;24.56;56.68;101732.94;4932759;28;124299;-78
2023/10/10 11:32:13;;;;;;;;;;;;;;;24.66;56.96;101739.25;4941758;28;123248;-79
2023/10/10 11:34:43;;;;;;;;;;;;;;;24.76;56.54;101733.00;4951090;28;115499;-78
2023/10/10 11:37:21;;;;;;;;;;;;;;;24.83;56.48;101740.44;4947527;28;114812;-78
2023/10/10 11:40:01;;;;;;;;;;;;;;;24.92;56.34;101738.72;4938470;28;123339;-78
2023/10/10 11:42:30;;;;;;;;;;;;;;;24.97;56.15;101741.84;4952871;28;123143;-78
2023/10/10 11:45:07;;;;;;;;;;;;;;;25.03;56.50;101741.31;4964119;28;114307;-77
2023/10/10 11:47:44;;;;;;;;;;;;;;;25.11;56.46;101732.47;4959031;28;113306;-78
2023/10/10 11:50:13;;;;;;;;;;;;;;;25.20;56.21;101730.72;4970398;28;123719;-78
2023/10/10 11:53:10;;;;;;;;;;;;;;;25.25;56.18;101723.06;4977100;28;126264;-78
2023/10/10 11:55:40;;;;;;;;;;;;;;;25.33;56.25;101715.06;4942533;28;114668;-78
2023/10/10 11:58:07;;;;;;;;;;;;;;;25.41;56.02;101715.19;4967555;28;113688;-78
2023/10/10 12:00:44;;;;;;;;;;;;;;;25.49;56.16;101716.34;4964823;28;122904;-78
2023/10/10 12:03:32;;;;;;;;;;;;;;;25.57;56.10;101711.03;4956596;28;122217;-78
2023/10/10 12:06:00;;;;;;;;;;;;;;;25.64;56.05;101702.16;4953264;28;114630;-78
2023/10/10 12:08:27;;;;;;;;;;;;;;;25.72;56.11;101709.56;4938120;28;112398;-78
2023/10/10 12:11:12;;;;;;;;;;;;;;;25.81;56.10;101697.81;4940279;28;124054;-78
2023/10/10 12:13:39;;;;;;;;;;;;;;;25.89;55.95;101693.50;4940287;28;122175;-78
2023/10/10 12:16:12;;;;;;;;;;;;;;;25.94;55.74;101691.25;4951239;28;114500;-78
2023/10/10 12:19:14;;;;;;;;;;;;;;;26.01;55.68;101686.91;4956192;28;111635;-78
2023/10/10 12:21:33;;;;;;;;;;;;;;;26.08;55.76;101684.47;4953154;28;125363;-78
2023/10/10 12:24:00;;;;;;;;;;;;;;;26.16;55.79;101685.44;4956125;28;122781;-78
2023/10/10 12:26:29;;;;;;;;;;;;;;;26.24;55.47;101684.66;4953340;28;117125;-78
2023/10/10 12:28:57;;;;;;;;;;;;;;;26.32;55.51;101689.34;4934985;28;113570;-78
2023/10/10 12:31:24;;;;;;;;;;;;;;;26.39;55.37;101683.16;4960756;28;124319;-78
2023/10/10 12:33:54;;;;;;;;;;;;;;;26.46;55.32;101680.66;4931894;28;122358;-79
2023/10/10 12:36:22;;;;;;;;;;;;;;;26.52;55.23;101673.75;4952117;28;113382;-78
2023/10/10 12:38:49;;;;;;;;;;;;;;;26.58;55.09;101674.00;4962669;28;113588;-78
2023/10/10 12:41:20;;;;;;;;;;;;;;;26.65;55.03;101670.69;4965900;28;123832;-78
2023/10/10 12:43:48;;;;;;;;;;;;;;;26.72;55.31;101664.50;4961649;28;123660;-79
2023/10/10 12:46:22;;;;;;;;;;;;;;;26.78;55.12;101668.44;4955004;28;115574;-78
2023/10/10 12:48:52;;;;;;;;;;;;;;;26.84;55.06;101675.13;4961187;28;114446;-78
2023/10/10 12:51:23;;;;;;;;;;;;;;;26.85;54.96;101674.97;4948635;28;123702;-78
2023/10/10 12:53:59;;;;;;;;;;;;;;;26.87;55.01;101672.94;4957120;28;122196;-78
2023/10/10 12:56:27;;;;;;;;;;;;;;;26.89;54.81;101660.06;4946372;28;113808;-78
2023/10/10 12:59:00;;;;;;;;;;;;;;;26.93;54.74;101666.88;4959448;28;113948;-78
2023/10/10 13:01:47;;;;;;;;;;;;;;;26.99;54.84;101666.28;4933768;28;122446;-78
2023/10/10 13:04:17;;;;;;;;;;;;;;;27.06;54.76;101654.78;4950311;28;124361;-78
2023/10/10 13:06:51;;;;;;;;;;;;;;;27.11;54.58;101663.31;4950157;28;114260;-78
2023/10/10 13:09:19;;;;;;;;;;;;;;;27.19;54.60;101660.66;4947318;28;113192;-79
2023/10/10 13:11:48;;;;;;;;;;;;;;;27.24;54.47;101663.75;4949895;28;123143;-78
2023/10/10 13:14:17;;;;;;;;;;;;;;;27.27;54.25;101657.16;4948891;28;124160;-78
2023/10/10 13:19:12;;;;;;;;;;;;;;;27.31;54.31;101653.97;4950326;28;114430;-78
2023/10/10 13:21:40;;;;;;;;;;;;;;;27.34;54.37;101655.53;4949451;28;124364;-78
2023/10/10 13:24:11;;;;;;;;;;;;;;;27.35;54.14;101655.38;4941845;28;124007;-76
2023/10/10 13:26:40;;;;;;;;;;;;;;;27.40;54.22;101656.75;4947935;28;113301;-78
2023/10/10 13:29:10;;;;;;;;;;;;;;;27.45;54.19;101654.41;4947412;28;113688;-78
2023/10/10 13:31:38;;;;;;;;;;;;;;;27.50;54.08;101657.47;4930882;28;123498;-78
2023/10/10 13:34:05;;;;;;;;;;;;;;;27.54;53.92;101659.75;4946320;28;124116;-79
2023/10/10 13:36:34;;;;;;;;;;;;;;;27.56;53.83;101665.03;4948486;28;114526;-78
2023/10/10 13:39:06;;;;;;;;;;;;;;;27.56;53.94;101656.84;4949608;28;113714;-79
2023/10/10 13:41:36;;;;;;;;;;;;;;;27.53;53.58;101657.16;4948275;28;123891;-79
2023/10/10 13:44:03;;;;;;;;;;;;;;;27.50;53.65;101657.47;4947927;28;123418;-79
2023/10/10 13:46:35;;;;;;;;;;;;;;;27.48;53.49;101654.06;4950130;28;113493;-78
2023/10/10 13:49:08;;;;;;;;;;;;;;;27.44;53.45;101652.69;4958357;28;114519;-78
2023/10/10 13:51:39;;;;;;;;;;;;;;;27.42;53.44;101654.72;4951273;28;125769;-78
2023/10/10 13:54:07;;;;;;;;;;;;;;;27.37;53.25;101653.34;4951151;28;123608;-78
2023/10/10 13:56:34;;;;;;;;;;;;;;;27.33;53.27;101657.41;4952546;28;115209;-79
2023/10/10 13:59:01;;;;;;;;;;;;;;;27.29;53.29;101655.97;4951834;28;112882;-79
2023/10/10 14:04:01;;;;;;;;;;;;;;;27.26;53.46;101645.44;4951537;28;124193;-78
2023/10/10 14:06:34;;;;;;;;;;;;;;;27.25;53.35;101640.13;4942017;28;115180;-79
2023/10/10 14:09:03;;;;;;;;;;;;;;;27.24;53.26;101642.00;4931593;28;114670;-79
2023/10/10 14:11:32;;;;;;;;;;;;;;;27.26;53.34;101631.00;4930933;28;125076;-78
2023/10/10 14:13:59;;;;;;;;;;;;;;;27.28;53.08;101632.53;4930225;28;123493;-78
2023/10/10 14:16:26;;;;;;;;;;;;;;;27.30;53.08;101630.50;4938414;28;114231;-78
2023/10/10 14:18:53;;;;;;;;;;;;;;;27.34;53.18;101626.44;4952123;28;113303;-77
2023/10/10 14:21:28;;;;;;;;;;;;;;;27.35;53.19;101628.16;4949312;28;124040;-78
2023/10/10 14:24:04;;;;;;;;;;;;;;;27.35;52.98;101617.28;4956718;28;124762;-78
2023/10/10 14:26:33;;;;;;;;;;;;;;;27.38;53.00;101616.94;4944089;28;114690;-78
2023/10/10 14:29:07;;;;;;;;;;;;;;;27.41;52.96;101612.19;4947074;28;114303;-78
2023/10/10 14:31:42;;;;;;;;;;;;;;;27.44;52.75;101609.16;4944506;28;125462;-78
2023/10/10 14:34:15;;;;;;;;;;;;;;;27.49;52.89;101613.09;4947044;28;123922;-77
2023/10/10 14:36:42;;;;;;;;;;;;;;;27.54;52.69;101609.91;4932068;28;113933;-78
2023/10/10 14:39:28;;;;;;;;;;;;;;;27.61;52.88;101604.66;4952109;28;113858;-78
2023/10/10 14:41:58;;;;;;;;;;;;;;;27.67;52.84;101604.88;4942796;28;124753;-78
2023/10/10 14:44:26;;;;;;;;;;;;;;;27.71;52.72;101606.25;4929177;28;125483;-77
2023/10/10 14:47:02;;;;;;;;;;;;;;;27.71;52.63;101595.34;4921839;28;114283;-78
2023/10/10 14:49:30;;;;;;;;;;;;;;;27.69;52.47;101597.38;4952907;28;115313;-78
2023/10/10 14:52:03;;;;;;;;;;;;;;;27.67;52.29;101593.97;4944223;28;124338;-78
2023/10/10 14:54:37;;;;;;;;;;;;;;;27.65;52.18;101596.00;4941269;28;124357;-79
2023/10/10 14:57:06;;;;;;;;;;;;;;;27.61;52.44;101594.63;4930327;28;115260;-78
2023/10/10 14:59:35;;;;;;;;;;;;;;;27.54;52.39;101586.25;4948145;28;113707;-80
2023/10/10 15:02:05;;;;;;;;;;;;;;;27.45;52.14;101583.66;4927720;28;124925;-78
2023/10/10 15:04:33;;;;;;;;;;;;;;;27.36;52.35;101586.31;4951268;28;123857;-79
2023/10/10 15:07:04;;;;;;;;;;;;;;;27.31;52.19;101583.25;4957699;28;114599;-78
2023/10/10 15:09:35;;;;;;;;;;;;;;;27.26;52.23;101574.72;4948789;28;114699;-78
2023/10/10 15:12:03;;;;;;;;;;;;;;;27.22;52.17;101578.75;4947027;28;124687;-78
2023/10/10 15:14:31;;;;;;;;;;;;;;;27.19;52.00;101573.63;4952235;28;97423;-78
2023/10/10 15:17:00;;;;;;;;;;;;;;;27.16;52.34;101574.81;4931578;28;114836;-78
2023/10/10 15:19:27;;;;;;;;;;;;;;;27.14;52.24;101571.38;4934182;28;114378;-78
2023/10/10 15:21:56;;;;;;;;;;;;;;;27.17;52.49;101575.66;4951101;28;122544;-77
2023/10/10 15:24:23;;;;;;;;;;;;;;;27.19;52.09;101569.03;4944957;28;123848;-78
2023/10/10 15:26:51;;;;;;;;;;;;;;;27.23;52.16;101566.00;4948036;28;114652;-78
2023/10/10 15:29:21;;;;;;;;;;;;;;;27.25;52.14;101567.56;4930883;28;112595;-78
2023/10/10 15:31:50;;;;;;;;;;;;;;;27.27;52.19;101568.25;4944625;28;125217;-79
2023/10/10 15:34:18;;;;;;;;;;;;;;;27.27;51.96;101565.53;4947811;28;123808;-78
2023/10/10 15:36:45;;;;;;;;;;;;;;;27.27;52.08;101565.53;4946917;28;114638;-77
2023/10/10 15:39:13;;;;;;;;;;;;;;;27.23;51.90;101564.13;4944214;28;113432;-78
2023/10/10 15:41:42;;;;;;;;;;;;;;;27.19;52.25;101557.28;4947937;28;124318;-78
2023/10/10 15:44:12;;;;;;;;;;;;;;;27.14;51.76;101559.63;4952208;28;125033;-77
2023/10/10 15:46:43;;;;;;;;;;;;;;;27.10;52.00;101552.81;4955050;28;115213;-78
2023/10/10 15:49:12;;;;;;;;;;;;;;;27.07;51.92;101559.44;4946031;28;114496;-78
2023/10/10 15:51:44;;;;;;;;;;;;;;;27.00;51.61;101559.22;4947143;28;124146;-78
2023/10/10 15:54:14;;;;;;;;;;;;;;;26.93;51.58;101558.13;4946822;28;123264;-79
2023/10/10 15:56:42;;;;;;;;;;;;;;;26.86;51.86;101551.66;4945904;28;115804;-78
2023/10/10 15:59:10;;;;;;;;;;;;;;;26.79;51.67;101550.56;4929479;28;113575;-79
2023/10/10 16:01:37;;;;;;;;;;;;;;;26.73;51.83;101557.50;4932117;28;123091;-80
2023/10/10 16:04:05;;;;;;;;;;;;;;;26.67;51.57;101551.81;4951335;28;124227;-79
2023/10/10 16:06:33;;;;;;;;;;;;;;;26.60;51.72;101547.03;4956168;28;113658;-79
2023/10/10 16:09:10;;;;;;;;;;;;;;;26.57;51.64;101557.31;4946486;28;114028;-78
2023/10/10 16:11:37;;;;;;;;;;;;;;;26.50;51.76;101546.22;4950600;28;125655;-78
2023/10/10 16:14:14;;;;;;;;;;;;;;;26.44;51.43;101546.84;4952999;28;124083;-79
2023/10/10 16:16:44;;;;;;;;;;;;;;;26.37;51.79;101545.75;4931973;28;114814;-78
2023/10/10 16:19:13;;;;;;;;;;;;;;;26.31;51.69;101546.38;4952030;28;114997;-78
2023/10/10 16:21:40;;;;;;;;;;;;;;;26.23;51.43;101545.28;4946549;28;123978;-78
2023/10/10 16:24:10;;;;;;;;;;;;;;;26.17;51.44;101545.91;4939371;28;123243;-78
2023/10/10 16:26:37;;;;;;;;;;;;;;;26.10;51.38;101539.41;4953428;28;114789;-79
2023/10/10 16:29:05;;;;;;;;;;;;;;;26.05;51.37;101541.75;4952475;28;113808;-79
2023/10/10 16:31:34;;;;;;;;;;;;;;;25.96;51.60;101546.22;4946182;28;125130;-80
2023/10/10 16:34:02;;;;;;;;;;;;;;;25.91;51.32;101544.94;4938337;28;122942;-79
2023/10/10 16:36:30;;;;;;;;;;;;;;;25.81;51.44;101545.84;4944927;28;115116;-78
2023/10/10 16:38:57;;;;;;;;;;;;;;;25.73;51.52;101543.03;4956512;28;114782;-78